createdAt,value
2022-09-14T00:00:32.104Z,99879.97
2022-09-14T00:03:33.901Z,99884.06
2022-09-14T00:06:35.738Z,99890.25
2022-09-14T00:09:37.594Z,99894.59
2022-09-14T00:12:39.466Z,99882.88
2022-09-14T00:15:42.102Z,99874.34
2022-09-14T00:18:44.094Z,99871.87
2022-09-14T00:21:45.937Z,99874.56
2022-09-14T00:24:47.748Z,99863.25
2022-09-14T00:27:49.624Z,99872.44
2022-09-14T00:30:51.477Z,99870.03
2022-09-14T00:33:53.625Z,99859.22
2022-09-14T00:36:55.786Z,99853.88
2022-09-14T00:39:57.843Z,99848.69
2022-09-14T00:42:59.704Z,99847.66
2022-09-14T00:46:02.619Z,99857.06
2022-09-14T00:49:05.578Z,99853.84
2022-09-14T00:52:15.536Z,99851.16
2022-09-14T00:55:19.060Z,99850.03
2022-09-14T00:58:21.351Z,99852.31
2022-09-14T01:01:23.212Z,99860.50
2022-09-14T01:04:25.174Z,99852.22
2022-09-14T01:07:29.979Z,99849.37
2022-09-14T01:10:50.430Z,99847.28
2022-09-14T01:13:58.255Z,99851.84
2022-09-14T01:17:00.639Z,99846.75
2022-09-14T01:20:02.467Z,99840.87
2022-09-14T01:23:26.695Z,99850.25
2022-09-14T01:26:28.453Z,99846.97
2022-09-14T01:29:30.898Z,99838.31
2022-09-14T01:32:38.721Z,99838.09
2022-09-14T01:36:00.828Z,99824.34
2022-09-14T01:39:02.669Z,99831.28
2022-09-14T01:42:04.601Z,99820.34
2022-09-14T01:45:07.998Z,99820.13
2022-09-14T01:48:10.984Z,99824.50
2022-09-14T01:51:13.678Z,99838.63
2022-09-14T01:54:30.062Z,99831.72
2022-09-14T01:57:36.243Z,99811.72
2022-09-14T02:00:39.928Z,99813.19
2022-09-14T02:03:43.265Z,99817.53
2022-09-14T02:06:46.137Z,99808.81
2022-09-14T02:09:48.037Z,99799.44
2022-09-14T02:12:50.188Z,99805.06
2022-09-14T02:15:52.115Z,99806.28
2022-09-14T02:18:54.050Z,99788.75
2022-09-14T02:21:55.906Z,99781.19
2022-09-14T02:24:57.772Z,99781.78
2022-09-14T02:27:59.621Z,99781.81
2022-09-14T02:31:01.431Z,99785.47
2022-09-14T02:34:23.896Z,99778.09
2022-09-14T02:37:25.631Z,99772.28
2022-09-14T02:40:35.370Z,99765.81
2022-09-14T02:43:46.628Z,99774.91
2022-09-14T02:47:14.970Z,99771.41
2022-09-14T02:50:20.294Z,99761.62
2022-09-14T02:53:40.250Z,99757.06
2022-09-14T02:56:42.202Z,99754.09
2022-09-14T02:59:44.148Z,99767.53
2022-09-14T03:02:45.964Z,99770.38
2022-09-14T03:05:47.800Z,99761.53
2022-09-14T03:08:50.011Z,99744.78
2022-09-14T03:11:51.851Z,99751.72
2022-09-14T03:14:53.661Z,99745.34
2022-09-14T03:17:55.674Z,99750.34
2022-09-14T03:21:07.880Z,99746.09
2022-09-14T03:24:09.840Z,99737.72
2022-09-14T03:27:11.734Z,99751.84
2022-09-14T03:30:13.747Z,99759.72
2022-09-14T03:33:15.695Z,99761.53
2022-09-14T03:36:18.274Z,99758.47
2022-09-14T03:39:20.131Z,99760.44
2022-09-14T03:42:22.193Z,99737.41
2022-09-14T03:45:24.195Z,99732.53
2022-09-14T03:48:26.014Z,99738.84
2022-09-14T03:51:28.166Z,99744.63
2022-09-14T03:54:30.086Z,99743.72
2022-09-14T03:57:32.989Z,99749.81
2022-09-14T04:00:34.838Z,99738.09
2022-09-14T04:03:36.881Z,99748.06
2022-09-14T04:06:38.797Z,99749.56
2022-09-14T04:09:40.714Z,99746.09
2022-09-14T04:12:42.707Z,99737.66
2022-09-14T04:15:44.939Z,99745.19
2022-09-14T04:18:47.224Z,99744.19
2022-09-14T04:21:49.034Z,99733.47
2022-09-14T04:24:51.186Z,99732.03
2022-09-14T04:28:16.806Z,99710.03
2022-09-14T04:31:15.152Z,99710.47
2022-09-14T04:34:17.181Z,99713.09
2022-09-14T04:37:18.990Z,99709.25
2022-09-14T04:40:22.055Z,99701.91
2022-09-14T04:43:24.413Z,99705.78
2022-09-14T04:46:27.635Z,99714.56
2022-09-14T04:49:29.537Z,99713.19
2022-09-14T04:52:31.518Z,99711.09
2022-09-14T04:55:33.360Z,99706.72
2022-09-14T04:58:35.854Z,99693.25
2022-09-14T05:01:38.992Z,99690.91
2022-09-14T05:04:42.537Z,99693.19
2022-09-14T05:07:44.461Z,99699.50
2022-09-14T05:10:46.584Z,99704.13
2022-09-14T05:13:50.287Z,99696.25
2022-09-14T05:16:52.387Z,99701.59
2022-09-14T05:19:54.296Z,99708.03
2022-09-14T05:22:56.272Z,99713.56
2022-09-14T05:25:58.649Z,99716.91
2022-09-14T05:29:01.554Z,99719.41
2022-09-14T05:32:03.592Z,99724.47
2022-09-14T05:35:05.731Z,99713.41
2022-09-14T05:38:07.739Z,99710.38
2022-09-14T05:41:13.205Z,99692.19
2022-09-14T05:44:15.016Z,99679.94
2022-09-14T05:47:17.039Z,99678.63
2022-09-14T05:50:21.038Z,99687.16
2022-09-14T05:53:22.864Z,99686.63
2022-09-14T05:56:25.675Z,99694.19
2022-09-14T05:59:31.653Z,99696.97
2022-09-14T06:02:33.572Z,99694.28
2022-09-14T06:05:35.882Z,99707.53
2022-09-14T06:08:38.047Z,99718.44
2022-09-14T06:11:39.847Z,99715.47
2022-09-14T06:14:41.694Z,99704.78
2022-09-14T06:17:43.583Z,99700.53
2022-09-14T06:20:52.074Z,99691.97
2022-09-14T06:23:55.051Z,99696.37
2022-09-14T06:26:56.955Z,99686.75
2022-09-14T06:29:58.786Z,99690.34
2022-09-14T06:33:00.677Z,99688.13
2022-09-14T06:36:09.940Z,99687.81
2022-09-14T06:39:12.129Z,99692.47
2022-09-14T06:42:14.251Z,99689.44
2022-09-14T06:45:16.305Z,99688.47
2022-09-14T06:48:18.453Z,99726.97
2022-09-14T06:51:24.647Z,99715.81
2022-09-14T06:54:26.930Z,99723.81
2022-09-14T06:57:28.804Z,99721.38
2022-09-14T07:00:30.679Z,99721.03
2022-09-14T07:03:32.940Z,99721.41
2022-09-14T07:06:45.408Z,99707.72
2022-09-14T07:09:47.431Z,99697.00
2022-09-14T07:12:49.658Z,99703.13
2022-09-14T07:15:51.766Z,99697.31
2022-09-14T07:18:57.425Z,99705.00
2022-09-14T07:21:59.398Z,99695.00
2022-09-14T07:25:01.263Z,99679.03
2022-09-14T07:28:03.204Z,99711.37
2022-09-14T07:31:05.697Z,99715.41
2022-09-14T07:34:07.571Z,99706.69
2022-09-14T07:37:10.537Z,99709.13
2022-09-14T07:40:12.501Z,99704.09
2022-09-14T07:43:14.952Z,99698.59
2022-09-14T07:46:17.225Z,99707.41
2022-09-14T07:49:19.251Z,99711.56
2022-09-14T07:52:21.123Z,99700.00
2022-09-14T07:55:23.136Z,99698.44
2022-09-14T07:58:25.009Z,99696.28
2022-09-14T08:01:29.869Z,99692.59
2022-09-14T08:04:31.758Z,99696.72
2022-09-14T08:07:33.603Z,99694.91
2022-09-14T08:10:35.758Z,99684.53
2022-09-14T08:13:42.822Z,99677.19
2022-09-14T08:16:44.947Z,99668.22
2022-09-14T08:19:46.965Z,99667.50
2022-09-14T08:22:48.835Z,99661.34
2022-09-14T08:25:50.780Z,99667.81
2022-09-14T08:28:52.882Z,99673.28
2022-09-14T08:31:54.827Z,99674.50
2022-09-14T08:34:56.762Z,99672.59
2022-09-14T08:37:58.618Z,99670.91
2022-09-14T08:41:06.095Z,99671.00
2022-09-14T08:44:07.947Z,99670.31
2022-09-14T08:47:09.751Z,99666.37
2022-09-14T08:50:18.747Z,99661.81
2022-09-14T08:53:21.582Z,99657.28
2022-09-14T08:56:25.668Z,99659.13
2022-09-14T08:59:34.031Z,99641.28
2022-09-14T09:02:59.179Z,99631.34
2022-09-14T09:06:03.508Z,99641.94
2022-09-14T09:09:24.576Z,99647.59
2022-09-14T09:12:36.039Z,99656.69
2022-09-14T09:15:45.445Z,99641.09
2022-09-14T09:19:00.363Z,99645.09
2022-09-14T09:22:03.953Z,99650.50
2022-09-14T09:25:07.129Z,99655.53
2022-09-14T09:28:10.654Z,99659.13
2022-09-14T09:31:14.875Z,99666.37
2022-09-14T09:34:17.590Z,99682.13
2022-09-14T09:37:21.087Z,99682.06
2022-09-14T09:40:29.709Z,99689.25
2022-09-14T09:43:48.818Z,99690.81
2022-09-14T09:46:53.254Z,99688.75
2022-09-14T09:50:02.230Z,99696.69
2022-09-14T09:53:06.800Z,99677.06
2022-09-14T09:56:09.101Z,99677.66
2022-09-14T09:59:22.050Z,99686.22
2022-09-14T10:02:27.787Z,99685.84
2022-09-14T10:05:33.080Z,99678.66
2022-09-14T10:08:35.223Z,99677.72
2022-09-14T10:11:38.217Z,99683.03
2022-09-14T10:14:40.618Z,99687.00
2022-09-14T10:18:02.690Z,99691.47
2022-09-14T10:21:06.782Z,99692.50
2022-09-14T10:24:14.828Z,99693.91
2022-09-14T10:27:37.732Z,99695.06
2022-09-14T10:30:51.070Z,99675.84
2022-09-14T10:33:55.667Z,99673.94
2022-09-14T10:37:13.638Z,99669.34
2022-09-14T10:40:18.762Z,99669.72
2022-09-14T10:43:20.999Z,99655.88
2022-09-14T10:46:26.449Z,99656.59
2022-09-14T10:49:43.809Z,99667.22
2022-09-14T10:53:04.807Z,99659.63
2022-09-14T10:56:18.635Z,99654.41
2022-09-14T10:59:23.714Z,99671.41
2022-09-14T11:02:25.860Z,99666.56
2022-09-14T11:05:29.145Z,99658.75
2022-09-14T11:08:32.846Z,99661.94
2022-09-14T11:11:43.809Z,99665.44
2022-09-14T11:14:49.070Z,99669.88
2022-09-14T11:18:01.700Z,99657.13
2022-09-14T11:21:09.776Z,99647.69
2022-09-14T11:24:11.628Z,99644.34
2022-09-14T11:27:32.709Z,99639.47
2022-09-14T11:30:37.599Z,99642.37
2022-09-14T11:33:46.962Z,99635.09
2022-09-14T11:36:59.476Z,99635.78
2022-09-14T11:40:13.745Z,99632.97
2022-09-14T11:43:15.943Z,99629.66
2022-09-14T11:46:22.947Z,99625.81
2022-09-14T11:49:27.994Z,99621.38
2022-09-14T11:52:30.934Z,99614.97
2022-09-14T11:55:32.957Z,99599.53
2022-09-14T11:58:34.831Z,99608.84
2022-09-14T12:01:38.741Z,99610.34
2022-09-14T12:04:52.444Z,99608.62
2022-09-14T12:07:55.637Z,99610.50
2022-09-14T12:11:03.630Z,99616.06
2022-09-14T12:14:24.095Z,99611.81
2022-09-14T12:17:40.762Z,99608.22
2022-09-14T12:20:52.889Z,99598.06
2022-09-14T12:23:58.097Z,99586.91
2022-09-14T12:27:00.253Z,99576.09
2022-09-14T12:30:02.067Z,99578.59
2022-09-14T12:33:04.260Z,99588.00
2022-09-14T12:36:06.558Z,99585.91
2022-09-14T12:39:14.411Z,99584.75
2022-09-14T12:42:30.010Z,99574.28
2022-09-14T12:45:48.656Z,99572.28
2022-09-14T12:48:51.785Z,99557.34
2022-09-14T12:51:53.617Z,99562.03
2022-09-14T12:55:08.863Z,99550.41
2022-09-14T12:58:16.411Z,99543.06
2022-09-14T13:01:21.489Z,99535.94
2022-09-14T13:04:30.502Z,99524.75
2022-09-14T13:07:33.037Z,99516.47
2022-09-14T13:10:36.253Z,99511.06
2022-09-14T13:13:38.356Z,99514.03
2022-09-14T13:16:42.881Z,99512.53
2022-09-14T13:19:49.556Z,99499.63
2022-09-14T13:22:51.510Z,99514.38
2022-09-14T13:25:53.603Z,99518.09
2022-09-14T13:28:56.055Z,99507.41
2022-09-14T13:32:02.980Z,99509.62
2022-09-14T13:35:05.917Z,99507.72
2022-09-14T13:38:09.164Z,99511.03
2022-09-14T13:41:12.709Z,99517.72
2022-09-14T13:44:14.976Z,99524.97
2022-09-14T13:47:20.253Z,99522.41
2022-09-14T13:50:23.641Z,99526.13
2022-09-14T13:53:45.739Z,99512.03
2022-09-14T13:56:47.666Z,99521.91
2022-09-14T14:00:09.242Z,99519.25
2022-09-14T14:03:12.228Z,99512.41
2022-09-14T14:06:21.572Z,99511.56
2022-09-14T14:09:23.459Z,99511.56
2022-09-14T14:12:25.617Z,99503.72
2022-09-14T14:15:27.729Z,99500.91
2022-09-14T14:18:41.136Z,99487.81
2022-09-14T14:21:43.217Z,99485.28
2022-09-14T14:25:11.688Z,99481.25
2022-09-14T14:28:19.554Z,99481.63
2022-09-14T14:31:22.120Z,99484.81
2022-09-14T14:34:25.613Z,99485.81
2022-09-14T14:37:27.567Z,99476.47
2022-09-14T14:40:29.691Z,99471.16
2022-09-14T14:43:31.568Z,99472.84
2022-09-14T14:46:33.437Z,99472.56
2022-09-14T14:49:35.894Z,99456.47
2022-09-14T14:52:38.073Z,99455.56
2022-09-14T14:55:40.974Z,99444.56
2022-09-14T14:58:44.670Z,99451.91
2022-09-14T15:01:47.241Z,99458.53
2022-09-14T15:04:49.320Z,99451.81
2022-09-14T15:07:53.850Z,99448.94
2022-09-14T15:10:56.541Z,99461.00
2022-09-14T15:13:58.669Z,99444.63
2022-09-14T15:17:02.304Z,99435.34
2022-09-14T15:20:06.352Z,99434.31
2022-09-14T15:23:09.976Z,99434.38
2022-09-14T15:26:11.825Z,99433.69
2022-09-14T15:29:13.998Z,99424.97
2022-09-14T15:32:15.843Z,99419.47
2022-09-14T15:35:17.772Z,99403.69
2022-09-14T15:38:19.548Z,99405.81
2022-09-14T15:41:21.356Z,99401.66
2022-09-14T15:44:23.312Z,99396.16
2022-09-14T15:47:25.134Z,99392.41
2022-09-14T15:50:27.053Z,99382.03
2022-09-14T15:53:28.955Z,99382.69
2022-09-14T15:56:30.992Z,99376.78
2022-09-14T15:59:33.015Z,99386.91
2022-09-14T16:02:34.897Z,99397.47
2022-09-14T16:05:39.911Z,99397.66
2022-09-14T16:08:41.995Z,99414.91
2022-09-14T16:11:43.882Z,99413.13
2022-09-14T16:14:45.714Z,99416.75
2022-09-14T16:17:51.625Z,99427.09
2022-09-14T16:20:53.428Z,99442.88
2022-09-14T16:23:55.917Z,99425.31
2022-09-14T16:26:57.976Z,99419.69
2022-09-14T16:29:59.798Z,99419.94
2022-09-14T16:33:01.917Z,99437.22
2022-09-14T16:36:05.038Z,99418.69
2022-09-14T16:39:09.538Z,99422.78
2022-09-14T16:42:11.403Z,99429.22
2022-09-14T16:45:13.251Z,99411.28
2022-09-14T16:48:15.106Z,99408.63
2022-09-14T16:51:18.977Z,99405.41
2022-09-14T16:54:21.782Z,99410.53
2022-09-14T16:57:25.461Z,99408.19
2022-09-14T17:00:27.310Z,99405.44
2022-09-14T17:03:31.673Z,99397.78
2022-09-14T17:06:34.682Z,99389.31
2022-09-14T17:09:36.648Z,99391.47
2022-09-14T17:12:38.466Z,99392.69
2022-09-14T17:15:40.382Z,99387.44
2022-09-14T17:18:42.641Z,99388.84
2022-09-14T17:21:45.122Z,99380.25
2022-09-14T17:24:47.056Z,99366.44
2022-09-14T17:27:48.881Z,99365.81
2022-09-14T17:30:52.084Z,99366.69
2022-09-14T17:33:54.787Z,99361.25
2022-09-14T17:36:56.614Z,99350.22
2022-09-14T17:39:58.502Z,99348.16
2022-09-14T17:43:00.343Z,99355.41
2022-09-14T17:46:02.899Z,99350.44
2022-09-14T17:49:04.903Z,99345.97
2022-09-14T17:52:06.935Z,99340.88
2022-09-14T17:55:08.867Z,99340.81
2022-09-14T17:58:10.797Z,99332.31
2022-09-14T18:01:15.491Z,99333.19
2022-09-14T18:04:17.466Z,99343.16
2022-09-14T18:07:19.243Z,99336.25
2022-09-14T18:10:21.059Z,99335.56
2022-09-14T18:13:22.849Z,99339.41
2022-09-14T18:16:25.180Z,99344.09
2022-09-14T18:19:27.170Z,99352.94
2022-09-14T18:22:28.995Z,99361.06
2022-09-14T18:25:30.791Z,99367.84
2022-09-14T18:28:32.816Z,99365.81
2022-09-14T18:31:34.649Z,99375.69
2022-09-14T18:34:36.550Z,99364.97
2022-09-14T18:37:38.347Z,99372.50
2022-09-14T18:40:40.221Z,99359.81
2022-09-14T18:43:42.764Z,99356.47
2022-09-14T18:46:46.890Z,99350.09
2022-09-14T18:49:50.013Z,99341.59
2022-09-14T18:52:51.889Z,99327.88
2022-09-14T18:55:53.708Z,99342.19
2022-09-14T18:58:55.510Z,99337.91
2022-09-14T19:01:57.407Z,99336.56
2022-09-14T19:04:59.373Z,99337.56
2022-09-14T19:08:01.542Z,99329.38
2022-09-14T19:11:06.886Z,99343.00
2022-09-14T19:14:10.506Z,99340.97
2022-09-14T19:17:12.404Z,99331.03
2022-09-14T19:20:14.264Z,99329.53
2022-09-14T19:23:16.269Z,99325.81
2022-09-14T19:26:19.430Z,99325.50
2022-09-14T19:29:22.616Z,99318.62
2022-09-14T19:32:24.469Z,99316.63
2022-09-14T19:35:26.958Z,99329.13
2022-09-14T19:38:28.857Z,99334.34
2022-09-14T19:41:31.042Z,99332.63
2022-09-14T19:44:33.129Z,99326.88
2022-09-14T19:47:34.896Z,99332.28
2022-09-14T19:50:36.690Z,99321.56
2022-09-14T19:53:38.489Z,99329.97
2022-09-14T19:56:40.327Z,99326.12
2022-09-14T19:59:42.154Z,99325.34
2022-09-14T20:02:47.226Z,99322.13
2022-09-14T20:05:49.666Z,99328.13
2022-09-14T20:08:57.040Z,99317.84
2022-09-14T20:11:58.962Z,99313.84
2022-09-14T20:15:00.760Z,99300.25
2022-09-14T20:18:02.575Z,99298.19
2022-09-14T20:21:06.757Z,99307.16
2022-09-14T20:24:18.076Z,99298.09
2022-09-14T20:27:20.047Z,99270.91
2022-09-14T20:30:21.937Z,99282.91
2022-09-14T20:33:23.748Z,99273.31
2022-09-14T20:36:25.719Z,99278.34
2022-09-14T20:39:27.921Z,99278.63
2022-09-14T20:42:29.726Z,99278.69
2022-09-14T20:45:31.548Z,99293.41
2022-09-14T20:48:33.480Z,99291.44
2022-09-14T20:51:36.094Z,99295.31
2022-09-14T20:54:38.019Z,99310.88
2022-09-14T20:57:39.848Z,99306.47
2022-09-14T21:00:42.740Z,99291.78
2022-09-14T21:03:45.188Z,99281.28
2022-09-14T21:06:48.259Z,99278.44
2022-09-14T21:09:50.138Z,99282.53
2022-09-14T21:12:52.293Z,99279.22
2022-09-14T21:15:54.131Z,99286.94
2022-09-14T21:19:00.482Z,99285.16
2022-09-14T21:22:02.766Z,99284.94
2022-09-14T21:25:04.686Z,99295.25
2022-09-14T21:28:06.480Z,99299.94
2022-09-14T21:31:12.509Z,99307.81
2022-09-14T21:34:14.441Z,99302.78
2022-09-14T21:37:16.255Z,99300.81
2022-09-14T21:40:18.713Z,99289.56
2022-09-14T21:43:20.545Z,99288.69
2022-09-14T21:46:22.563Z,99289.63
2022-09-14T21:49:24.463Z,99297.34
2022-09-14T21:52:26.269Z,99278.19
2022-09-14T21:55:28.513Z,99287.63
2022-09-14T21:58:30.319Z,99287.25
2022-09-14T22:01:32.272Z,99290.22
2022-09-14T22:04:34.220Z,99294.69
2022-09-14T22:07:36.082Z,99293.41
2022-09-14T22:10:38.389Z,99299.91
2022-09-14T22:13:40.478Z,99294.47
2022-09-14T22:17:23.009Z,99282.59
2022-09-14T22:20:24.915Z,99269.53
2022-09-14T22:23:26.891Z,99266.25
2022-09-14T22:26:29.094Z,99254.69
2022-09-14T22:29:30.926Z,99272.25
2022-09-14T22:32:32.703Z,99256.06
2022-09-14T22:35:34.507Z,99274.56
2022-09-14T22:38:36.501Z,99280.66
2022-09-14T22:41:38.537Z,99280.50
2022-09-14T22:44:40.615Z,99275.00
2022-09-14T22:47:42.430Z,99280.28
2022-09-14T22:50:44.721Z,99277.03
2022-09-14T22:53:46.575Z,99263.84
2022-09-14T22:56:48.357Z,99274.34
2022-09-14T22:59:50.157Z,99278.53
2022-09-14T23:02:52.013Z,99274.34
2022-09-14T23:05:55.673Z,99280.50
2022-09-14T23:08:57.669Z,99284.19
2022-09-14T23:11:59.437Z,99292.22
2022-09-14T23:15:01.262Z,99283.56
2022-09-14T23:18:03.082Z,99280.28
2022-09-14T23:21:05.044Z,99287.44
2022-09-14T23:24:07.230Z,99280.81
2022-09-14T23:27:09.023Z,99273.12
2022-09-14T23:30:11.132Z,99275.88
2022-09-14T23:33:12.922Z,99279.03
2022-09-14T23:36:14.724Z,99268.00
2022-09-14T23:39:16.534Z,99275.25
2022-09-14T23:42:18.347Z,99288.34
2022-09-14T23:45:20.124Z,99276.59
2022-09-14T23:48:22.149Z,99266.91
2022-09-14T23:51:24.666Z,99263.03
2022-09-14T23:54:26.792Z,99252.22
2022-09-14T23:57:28.617Z,99255.94
